Time;durP1;ratioP1;P1;durP2;ratioP2;P2;SDS_P1;SDS_P2;PMS_P1;PMS_P2;Temp;Humidity;BMP_temperature;BMP_pressure;BME280_temperature;BME280_humidity;BME280_pressure;Samples;Min_cycle;Max_cycle;Signal;HPM_P1;HPM_P2
2023/12/19 00:01:45;;;;;;;25.63;13.77;;;;;;;-0.78;100.00;99437.94;5081322;28;20230;-78
2023/12/19 00:04:11;;;;;;;22.47;13.50;;;;;;;-0.85;100.00;99426.75;5082230;28;20301;-78
2023/12/19 00:06:38;;;;;;;18.27;12.83;;;;;;;-0.94;100.00;99425.88;5081612;28;20302;-79
2023/12/19 00:09:04;;;;;;;19.30;12.63;;;;;;;-1.00;100.00;99420.75;5082042;28;20221;-78
2023/12/19 00:11:30;;;;;;;18.70;11.50;;;;;;;-1.06;100.00;99415.59;5081978;28;20234;-79
2023/12/19 00:13:57;;;;;;;17.03;11.23;;;;;;;-1.08;100.00;99406.91;5081419;28;20325;-78
2023/12/19 00:16:24;;;;;;;16.90;11.97;;;;;;;-1.01;100.00;99398.25;5081602;28;20220;-79
2023/12/19 00:18:52;;;;;;;18.17;11.23;;;;;;;-0.97;100.00;99400.84;5081738;28;20203;-78
2023/12/19 00:21:18;;;;;;;16.93;11.50;;;;;;;-0.90;100.00;99399.94;5081050;28;20291;-79
2023/12/19 00:23:45;;;;;;;20.17;12.40;;;;;;;-0.84;100.00;99386.94;5081293;28;20290;-78
2023/12/19 00:26:12;;;;;;;20.77;13.17;;;;;;;-0.82;100.00;99366.16;5080382;28;20278;-78
2023/12/19 00:28:39;;;;;;;22.93;12.63;;;;;;;-0.78;100.00;99360.09;5081053;28;20901;-78
2023/12/19 00:31:06;;;;;;;20.50;13.67;;;;;;;-0.73;100.00;99358.34;5080301;28;20858;-79
2023/12/19 00:33:33;;;;;;;21.63;13.93;;;;;;;-0.66;100.00;99344.44;5079225;28;20210;-78
2023/12/19 00:36:02;;;;;;;20.70;13.23;;;;;;;-0.69;100.00;99331.50;5079730;28;20216;-80
2023/12/19 00:38:28;;;;;;;24.00;14.60;;;;;;;-0.57;100.00;99327.09;5078826;28;20215;-78
2023/12/19 00:40:55;;;;;;;21.93;14.27;;;;;;;-0.51;100.00;99328.78;5080119;28;20213;-78
2023/12/19 00:43:24;;;;;;;21.10;13.80;;;;;;;-0.50;100.00;99330.50;5080996;28;20219;-79
2023/12/19 00:45:52;;;;;;;25.03;15.73;;;;;;;-0.43;100.00;99338.22;5081369;28;20207;-80
2023/12/19 00:48:18;;;;;;;21.83;14.00;;;;;;;-0.40;100.00;99337.34;5081084;28;20261;-80
2023/12/19 00:50:45;;;;;;;19.73;13.37;;;;;;;-0.40;100.00;99358.13;5081777;28;20214;-78
2023/12/19 00:53:13;;;;;;;22.80;14.47;;;;;;;-0.38;100.00;99361.59;5081535;28;20336;-79
2023/12/19 00:55:40;;;;;;;23.17;13.97;;;;;;;-0.38;100.00;99361.59;5081239;28;20245;-80
2023/12/19 00:58:06;;;;;;;19.30;13.10;;;;;;;-0.40;100.00;99347.75;5082003;28;20206;-79
2023/12/19 01:00:32;;;;;;;19.47;12.83;;;;;;;-0.52;100.00;99332.25;5081232;28;20195;-79
2023/12/19 01:02:59;;;;;;;19.30;12.80;;;;;;;-0.59;100.00;99327.97;5080307;28;20234;-79
2023/12/19 01:05:26;;;;;;;18.23;12.33;;;;;;;-0.60;100.00;99331.44;5081028;28;20618;-79
2023/12/19 01:07:52;;;;;;;22.37;13.33;;;;;;;-0.55;100.00;99327.09;5080742;28;20222;-79
2023/12/19 01:10:21;;;;;;;16.87;11.73;;;;;;;-0.49;100.00;99327.03;5081132;28;20203;-79
2023/12/19 01:12:47;;;;;;;17.20;12.13;;;;;;;-0.48;100.00;99323.56;5080709;28;20243;-78
2023/12/19 01:15:13;;;;;;;18.93;12.47;;;;;;;-0.50;100.00;99327.91;5081020;28;20203;-78
2023/12/19 01:17:40;;;;;;;16.97;11.07;;;;;;;-0.51;100.00;99328.78;5080875;28;20206;-79
2023/12/19 01:20:09;;;;;;;19.33;11.13;;;;;;;-0.47;100.00;99325.28;5081128;28;20266;-79
2023/12/19 01:22:35;;;;;;;18.17;11.33;;;;;;;-0.49;100.00;99342.63;5081101;28;20313;-80
2023/12/19 01:25:01;;;;;;;18.60;11.30;;;;;;;-0.45;100.00;99333.94;5079949;28;20207;-79
2023/12/19 01:27:29;;;;;;;20.80;13.03;;;;;;;-0.36;100.00;99344.25;5080706;28;20226;-79
2023/12/19 01:29:56;;;;;;;18.67;11.90;;;;;;;-0.40;100.00;99342.53;5080640;28;20217;-79
2023/12/19 01:32:22;;;;;;;19.20;11.30;;;;;;;-0.55;100.00;99358.25;5079866;28;20240;-79
2023/12/19 01:34:49;;;;;;;18.07;11.77;;;;;;;-0.56;100.00;99359.13;5080644;28;20217;-79
2023/12/19 01:37:15;;;;;;;19.30;12.27;;;;;;;-0.31;100.00;99363.28;5081075;28;20210;-79
2023/12/19 01:39:42;;;;;;;19.20;12.57;;;;;;;-0.30;100.00;99375.38;5080399;28;20217;-79
2023/12/19 01:42:09;;;;;;;18.07;12.13;;;;;;;-0.43;100.00;99365.94;5080837;28;20244;-79
2023/12/19 01:44:38;;;;;;;20.10;12.53;;;;;;;-0.47;100.00;99357.31;5080256;28;20277;-79
2023/12/19 01:47:05;;;;;;;20.20;11.87;;;;;;;-0.54;100.00;99349.56;5080555;28;20259;-79
2023/12/19 01:49:32;;;;;;;19.13;12.07;;;;;;;-0.54;100.00;99349.56;5081715;28;20215;-79
2023/12/19 01:51:59;;;;;;;16.93;10.83;;;;;;;-0.59;100.00;99356.53;5080087;28;20711;-79
2023/12/19 01:54:28;;;;;;;16.60;10.53;;;;;;;-0.57;100.00;99360.00;5080491;28;20582;-79
2023/12/19 01:56:55;;;;;;;17.23;11.03;;;;;;;-0.61;100.00;99358.28;5079946;28;20225;-79
2023/12/19 01:59:21;;;;;;;13.37;10.73;;;;;;;-0.68;100.00;99347.03;5079419;28;20239;-80
2023/12/19 02:01:49;;;;;;;17.97;10.80;;;;;;;-0.76;100.00;99358.34;5081244;28;20231;-79
2023/12/19 02:04:16;;;;;;;18.23;11.00;;;;;;;-0.81;100.00;99354.94;5080414;28;20695;-80
2023/12/19 02:06:43;;;;;;;15.53;10.67;;;;;;;-0.81;100.00;99355.78;5080326;28;20269;-79
2023/12/19 02:09:10;;;;;;;18.83;10.33;;;;;;;-0.77;100.00;99364.41;5080757;28;20207;-79
2023/12/19 02:11:36;;;;;;;15.23;9.97;;;;;;;-0.75;100.00;99360.94;5080642;28;20234;-81
2023/12/19 02:14:03;;;;;;;16.07;9.90;;;;;;;-0.80;100.00;99352.31;5084050;28;20210;-80
2023/12/19 02:16:29;;;;;;;16.93;11.53;;;;;;;-0.74;100.00;99349.69;5084167;28;20203;-79
2023/12/19 02:19:04;;;;;;;19.20;11.27;;;;;;;-0.73;100.00;99359.22;5084630;28;20211;-79
2023/12/19 02:21:31;;;;;;;17.77;10.90;;;;;;;-0.76;100.00;99355.75;5084419;28;20767;-79
2023/12/19 02:23:59;;;;;;;15.37;9.87;;;;;;;-0.81;100.00;99339.34;5083907;28;20207;-80
2023/12/19 02:26:26;;;;;;;14.27;10.50;;;;;;;-0.88;100.00;99342.81;5083903;28;20207;-79
2023/12/19 02:28:53;;;;;;;16.60;10.73;;;;;;;-0.90;100.00;99349.75;5084786;28;20296;-79
2023/12/19 02:31:19;;;;;;;18.53;11.03;;;;;;;-0.91;100.00;99335.94;5084186;28;20720;-78
2023/12/19 02:33:46;;;;;;;19.20;11.53;;;;;;;-0.93;100.00;99335.06;5085060;28;20262;-79
2023/12/19 02:36:15;;;;;;;20.63;12.03;;;;;;;-0.80;100.00;99331.53;5083927;28;20210;-79
2023/12/19 02:38:41;;;;;;;15.43;10.50;;;;;;;-0.78;100.00;99314.25;5084151;28;20211;-79
2023/12/19 02:41:10;;;;;;;20.40;12.10;;;;;;;-0.77;100.00;99312.50;5084505;28;20229;-79
2023/12/19 02:43:37;;;;;;;19.20;11.87;;;;;;;-0.72;100.00;99308.16;5083754;28;20756;-78
2023/12/19 02:46:04;;;;;;;17.33;11.63;;;;;;;-0.70;100.00;99321.97;5082320;28;20955;-79
2023/12/19 02:48:30;;;;;;;20.33;12.30;;;;;;;-0.73;100.00;99327.19;5084269;28;20270;-79
2023/12/19 02:50:58;;;;;;;17.53;11.33;;;;;;;-0.70;100.00;99327.16;5084077;28;20609;-79
2023/12/19 02:53:25;;;;;;;17.60;11.10;;;;;;;-0.86;100.00;99321.19;5083093;28;20230;-79
2023/12/19 02:55:51;;;;;;;16.43;11.83;;;;;;;-0.79;100.00;99322.03;5083925;28;20607;-79
2023/12/19 02:58:40;;;;;;;17.47;11.33;;;;;;;-0.79;100.00;99317.72;5083969;28;20199;-78
2023/12/19 03:01:07;;;;;;;18.77;11.17;;;;;;;-0.76;100.00;99309.03;5077703;28;20249;-78
2023/12/19 03:03:33;;;;;;;17.93;11.53;;;;;;;-0.81;100.00;99310.81;5082317;28;20215;-78
2023/12/19 03:06:00;;;;;;;18.43;12.00;;;;;;;-0.85;100.00;99311.69;5082478;28;20618;-78
2023/12/19 03:08:27;;;;;;;17.77;10.63;;;;;;;-0.94;100.00;99304.81;5082996;28;20240;-79
2023/12/19 03:10:54;;;;;;;16.63;11.07;;;;;;;-1.03;100.00;99307.47;5082688;28;20207;-78
2023/12/19 03:13:20;;;;;;;18.73;11.27;;;;;;;-1.04;100.00;99310.06;5083429;28;20234;-79
2023/12/19 03:15:48;;;;;;;15.53;11.33;;;;;;;-1.05;100.00;99304.00;5083309;28;20213;-79
2023/12/19 03:18:14;;;;;;;13.93;10.17;;;;;;;-1.11;100.00;99303.19;5082827;28;20232;-79
2023/12/19 03:20:41;;;;;;;17.53;11.20;;;;;;;-1.10;100.00;99297.13;5083544;28;20214;-79
2023/12/19 03:23:08;;;;;;;17.27;11.63;;;;;;;-1.05;100.00;99303.16;5083184;28;20241;-80
2023/12/19 03:25:34;;;;;;;14.83;10.70;;;;;;;-1.00;100.00;99306.59;5081850;28;20207;-79
2023/12/19 03:28:01;;;;;;;18.03;10.97;;;;;;;-0.97;100.00;99296.19;5083779;28;20297;-79
2023/12/19 03:30:27;;;;;;;18.77;11.17;;;;;;;-1.01;100.00;99294.47;5083807;28;20209;-78
2023/12/19 03:32:55;;;;;;;15.40;10.67;;;;;;;-1.03;100.00;99286.72;5083379;28;20346;-78
2023/12/19 03:35:23;;;;;;;17.83;10.60;;;;;;;-1.04;100.00;99268.56;5083009;28;20212;-79
2023/12/19 03:37:50;;;;;;;18.53;10.63;;;;;;;-0.93;100.00;99262.41;5082933;28;20226;-78
2023/12/19 03:40:17;;;;;;;15.40;11.30;;;;;;;-0.82;100.00;99268.41;5083044;28;20222;-79
2023/12/19 03:42:44;;;;;;;17.40;10.77;;;;;;;-0.75;100.00;99283.06;5082973;28;20249;-79
2023/12/19 03:45:10;;;;;;;16.37;10.93;;;;;;;-0.71;100.00;99273.53;5082939;28;20230;-79
2023/12/19 03:47:37;;;;;;;16.17;10.50;;;;;;;-0.73;100.00;99275.28;5084158;28;20210;-78
2023/12/19 03:50:06;;;;;;;16.30;10.73;;;;;;;-0.71;100.00;99278.72;5083419;28;20214;-79
2023/12/19 03:52:33;;;;;;;14.37;10.70;;;;;;;-0.73;100.00;99281.34;5082345;28;20242;-79
2023/12/19 03:54:59;;;;;;;15.13;10.53;;;;;;;-0.77;100.00;99286.53;5082694;28;20214;-78
2023/12/19 03:57:26;;;;;;;15.70;10.60;;;;;;;-0.86;100.00;99278.81;5082737;28;20211;-79
2023/12/19 03:59:53;;;;;;;16.10;10.87;;;;;;;-0.98;100.00;99263.34;5082115;28;20224;-78
2023/12/19 04:02:20;;;;;;;15.33;10.43;;;;;;;-1.15;100.00;99249.59;5083102;28;20242;-79
2023/12/19 04:04:46;;;;;;;15.50;10.70;;;;;;;-1.20;100.00;99256.53;5082634;28;20210;-79
2023/12/19 04:07:14;;;;;;;15.03;9.80;;;;;;;-1.23;100.00;99253.97;5081583;28;20224;-79
2023/12/19 04:09:41;;;;;;;17.90;10.77;;;;;;;-1.13;100.00;99263.41;5081999;28;20222;-79
2023/12/19 04:12:09;;;;;;;16.40;10.00;;;;;;;-1.07;100.00;99253.00;5082255;28;20237;-78
2023/12/19 04:14:36;;;;;;;15.87;10.20;;;;;;;-1.01;100.00;99247.75;5081947;28;20222;-79
2023/12/19 04:17:03;;;;;;;15.03;9.57;;;;;;;-0.93;100.00;99251.19;5082957;28;20203;-79
2023/12/19 04:19:29;;;;;;;15.37;8.63;;;;;;;-1.00;100.00;99244.31;5082663;28;20219;-78
2023/12/19 04:21:57;;;;;;;12.53;9.07;;;;;;;-0.97;100.00;99246.88;5081476;28;20413;-78
2023/12/19 04:24:26;;;;;;;15.43;9.53;;;;;;;-0.96;100.00;99252.06;5081453;28;20207;-79
2023/12/19 04:26:53;;;;;;;17.10;10.20;;;;;;;-0.96;100.00;99249.47;5081606;28;20259;-78
2023/12/19 04:29:20;;;;;;;13.90;10.07;;;;;;;-0.99;100.00;99240.84;5082200;28;20211;-79
2023/12/19 04:31:46;;;;;;;15.33;10.30;;;;;;;-1.14;100.00;99234.03;5082855;28;20298;-80
2023/12/19 04:34:13;;;;;;;15.13;9.97;;;;;;;-1.19;100.00;99237.50;5082261;28;20223;-79
2023/12/19 04:36:40;;;;;;;16.37;11.20;;;;;;;-1.20;100.00;99238.38;5081825;28;20236;-78
2023/12/19 04:39:06;;;;;;;17.93;10.07;;;;;;;-1.21;100.00;99228.88;5083293;28;20221;-79
2023/12/19 04:41:34;;;;;;;14.80;10.53;;;;;;;-1.22;100.00;99233.19;5082165;28;20233;-80
2023/12/19 04:44:00;;;;;;;18.87;11.13;;;;;;;-1.19;100.00;99237.50;5082210;28;20203;-79
2023/12/19 04:46:27;;;;;;;17.10;10.67;;;;;;;-1.20;100.00;99253.94;5081764;28;20203;-79
2023/12/19 04:48:55;;;;;;;15.97;9.83;;;;;;;-1.36;100.00;99244.53;5082387;28;20217;-79
2023/12/19 04:51:22;;;;;;;15.43;9.63;;;;;;;-1.54;100.00;99229.88;5082107;28;20226;-79
2023/12/19 04:53:50;;;;;;;14.83;9.87;;;;;;;-1.68;100.00;99228.22;5082640;28;20233;-81
2023/12/19 04:56:17;;;;;;;17.97;10.67;;;;;;;-1.80;100.00;99217.88;5082394;28;20223;-79
2023/12/19 04:58:46;;;;;;;13.10;9.37;;;;;;;-1.90;100.00;99216.22;5082118;28;20676;-79
2023/12/19 05:01:13;;;;;;;15.90;10.90;;;;;;;-1.93;100.00;99204.13;5082761;28;20234;-78
2023/12/19 05:03:41;;;;;;;18.40;10.77;;;;;;;-1.95;100.00;99210.19;5081911;28;20316;-78
2023/12/19 05:06:08;;;;;;;17.03;10.47;;;;;;;-1.95;100.00;99211.06;5082076;28;20223;-79
2023/12/19 05:08:35;;;;;;;16.27;10.37;;;;;;;-1.92;100.00;99190.31;5082408;28;20224;-79
2023/12/19 05:11:02;;;;;;;17.47;10.87;;;;;;;-1.88;100.00;99201.53;5083026;28;20225;-78
2023/12/19 05:13:28;;;;;;;15.73;10.87;;;;;;;-1.83;100.00;99211.00;5082172;28;20237;-79
2023/12/19 05:15:56;;;;;;;16.97;11.70;;;;;;;-1.79;100.00;99211.88;5082189;28;20210;-79
2023/12/19 05:18:23;;;;;;;16.20;9.90;;;;;;;-1.78;100.00;99208.41;5083494;28;20217;-79
2023/12/19 05:20:49;;;;;;;16.13;10.87;;;;;;;-1.82;100.00;99206.69;5083026;28;20221;-79
2023/12/19 05:23:16;;;;;;;17.93;10.77;;;;;;;-1.75;100.00;99210.97;5083469;28;20214;-79
2023/12/19 05:25:43;;;;;;;19.20;11.10;;;;;;;-1.79;100.00;99212.72;5081366;28;20242;-79
2023/12/19 05:28:09;;;;;;;16.03;10.43;;;;;;;-1.83;100.00;99200.63;5083179;28;20277;-79
2023/12/19 05:30:35;;;;;;;15.40;9.90;;;;;;;-1.91;100.00;99201.53;5083552;28;20211;-79
2023/12/19 05:33:04;;;;;;;14.47;10.17;;;;;;;-1.85;100.00;99198.94;5083083;28;20238;-79
2023/12/19 05:35:30;;;;;;;16.27;10.83;;;;;;;-1.79;100.00;99206.69;5082268;28;20221;-79
2023/12/19 05:37:57;;;;;;;15.87;9.87;;;;;;;-1.83;100.00;99204.97;5083829;28;20218;-79
2023/12/19 05:40:23;;;;;;;17.07;10.20;;;;;;;-1.94;100.00;99202.41;5082806;28;20221;-80
2023/12/19 05:42:54;;;;;;;15.27;8.87;;;;;;;-1.99;100.00;99206.75;5082912;28;20261;-79
2023/12/19 05:45:22;;;;;;;14.23;9.13;;;;;;;-2.01;100.00;99199.84;5083242;28;20206;-79
2023/12/19 05:47:48;;;;;;;16.90;10.13;;;;;;;-2.04;100.00;99195.53;5085388;28;20209;-80
2023/12/19 05:50:16;;;;;;;14.20;9.27;;;;;;;-2.06;100.00;99186.03;5086930;28;20216;-79
2023/12/19 05:52:42;;;;;;;18.80;10.43;;;;;;;-2.09;100.00;99165.34;5087594;28;20257;-79
2023/12/19 05:55:09;;;;;;;16.37;10.97;;;;;;;-2.20;100.00;99169.69;5087332;28;20272;-81
2023/12/19 05:57:36;;;;;;;15.00;9.60;;;;;;;-2.22;100.00;99179.16;5086169;28;20381;-79
2023/12/19 06:00:03;;;;;;;15.37;10.13;;;;;;;-2.14;100.00;99191.22;5086735;28;20304;-82
2023/12/19 06:02:30;;;;;;;16.20;9.60;;;;;;;-2.04;100.00;99184.28;5085378;28;20763;-78
2023/12/19 06:04:56;;;;;;;17.17;10.50;;;;;;;-1.87;100.00;99182.50;5086323;28;20303;-78
2023/12/19 06:07:24;;;;;;;18.13;11.57;;;;;;;-1.79;100.00;99196.31;5087207;28;20213;-78
2023/12/19 06:09:51;;;;;;;19.47;11.27;;;;;;;-1.72;100.00;99193.69;5087651;28;20318;-79
2023/12/19 06:12:18;;;;;;;16.57;11.50;;;;;;;-1.71;100.00;99187.63;5086634;28;20222;-79
2023/12/19 06:14:45;;;;;;;17.23;10.73;;;;;;;-1.73;100.00;99201.47;5086194;28;20233;-78
2023/12/19 06:17:11;;;;;;;16.43;9.93;;;;;;;-1.75;100.00;99203.19;5089152;28;20210;-78
2023/12/19 06:19:38;;;;;;;18.60;11.07;;;;;;;-1.76;100.00;99214.44;5087734;28;20573;-79
2023/12/19 06:22:05;;;;;;;15.37;9.93;;;;;;;-1.70;100.00;99209.22;5087498;28;20244;-79
2023/12/19 06:24:32;;;;;;;17.80;11.37;;;;;;;-1.71;100.00;99215.28;5085821;28;20239;-78
2023/12/19 06:26:59;;;;;;;17.90;10.77;;;;;;;-1.68;100.00;99213.53;5085026;28;20210;-79
2023/12/19 06:29:26;;;;;;;16.57;9.80;;;;;;;-1.64;100.00;99211.78;5085894;28;20225;-78
2023/12/19 06:31:52;;;;;;;15.13;9.90;;;;;;;-1.62;100.00;99223.00;5087102;28;20231;-78
2023/12/19 06:34:19;;;;;;;13.67;9.53;;;;;;;-1.61;100.00;99216.97;5086672;28;20233;-79
2023/12/19 06:36:45;;;;;;;15.73;9.30;;;;;;;-1.68;100.00;99220.44;5086150;28;20300;-78
2023/12/19 06:39:12;;;;;;;14.00;9.97;;;;;;;-1.66;100.00;99234.28;5087573;28;20204;-78
2023/12/19 06:41:40;;;;;;;14.13;8.93;;;;;;;-1.71;100.00;99228.25;5089402;28;20256;-80
2023/12/19 06:44:07;;;;;;;14.57;8.97;;;;;;;-1.71;100.00;99233.44;5093356;28;20210;-78
2023/12/19 06:46:33;;;;;;;14.63;9.43;;;;;;;-1.46;100.00;99238.53;5098631;28;20538;-79
2023/12/19 06:49:00;;;;;;;16.43;10.53;;;;;;;-1.37;100.00;99228.09;5100368;28;20262;-78
2023/12/19 06:51:27;;;;;;;15.77;10.43;;;;;;;-1.35;100.00;99221.16;5099154;28;20225;-79
2023/12/19 06:53:55;;;;;;;15.00;9.60;;;;;;;-1.36;100.00;99218.59;5100508;28;20261;-78
2023/12/19 06:56:26;;;;;;;14.27;9.97;;;;;;;-1.39;100.00;99222.06;5099607;28;20202;-79
2023/12/19 06:58:54;;;;;;;14.20;8.77;;;;;;;-1.39;100.00;99209.09;5092683;28;20208;-78
2023/12/19 07:01:21;;;;;;;15.27;10.33;;;;;;;-1.44;100.00;99199.59;5096286;28;20227;-79
2023/12/19 07:03:48;;;;;;;13.37;9.30;;;;;;;-1.40;100.00;99206.50;5100654;28;20233;-78
2023/12/19 07:06:14;;;;;;;13.30;9.47;;;;;;;-1.41;100.00;99209.97;5099893;28;20254;-79
2023/12/19 07:08:41;;;;;;;12.60;10.27;;;;;;;-1.45;100.00;99213.44;5096391;28;20222;-79
2023/12/19 07:11:09;;;;;;;16.03;10.13;;;;;;;-1.51;100.00;99213.47;5090961;28;20234;-79
2023/12/19 07:13:35;;;;;;;12.23;9.23;;;;;;;-1.56;100.00;99203.13;5097277;28;20253;-78
2023/12/19 07:16:04;;;;;;;13.07;9.23;;;;;;;-1.62;100.00;99207.47;5100102;28;20229;-79
2023/12/19 07:18:31;;;;;;;16.17;10.53;;;;;;;-1.67;100.00;99212.66;5100321;28;20334;-79
2023/12/19 07:20:58;;;;;;;15.07;10.13;;;;;;;-1.55;100.00;99225.56;5099767;28;20234;-79
2023/12/19 07:23:25;;;;;;;16.57;10.67;;;;;;;-1.50;100.00;99225.56;5100031;28;20279;-79
2023/12/19 07:25:52;;;;;;;16.23;10.87;;;;;;;-1.39;100.00;99214.28;5099662;28;20258;-79
2023/12/19 07:28:18;;;;;;;17.40;11.00;;;;;;;-1.21;100.00;99221.09;5099169;28;20278;-79
2023/12/19 07:30:45;;;;;;;15.87;10.77;;;;;;;-1.28;100.00;99212.50;5099872;28;20201;-78
2023/12/19 07:33:13;;;;;;;19.37;11.00;;;;;;;-1.21;100.00;99216.78;5099862;28;20188;-78
2023/12/19 07:35:41;;;;;;;17.60;11.33;;;;;;;-1.15;100.00;99208.97;5099258;28;20258;-78
2023/12/19 07:38:08;;;;;;;20.83;10.83;;;;;;;-1.00;100.00;99229.59;5099938;28;20233;-78
2023/12/19 07:40:35;;;;;;;20.53;11.83;;;;;;;-0.88;100.00;99228.66;5099667;28;20198;-78
2023/12/19 07:43:01;;;;;;;17.63;10.60;;;;;;;-0.90;100.00;99220.91;5098971;28;20221;-79
2023/12/19 07:45:28;;;;;;;21.20;11.67;;;;;;;-0.91;100.00;99228.69;5099472;28;20181;-79
2023/12/19 07:47:55;;;;;;;17.77;11.90;;;;;;;-0.88;100.00;99226.94;5099605;28;20195;-79
2023/12/19 07:50:24;;;;;;;18.33;11.13;;;;;;;-0.79;100.00;99239.84;5099047;28;20269;-79
2023/12/19 07:52:51;;;;;;;17.73;10.43;;;;;;;-0.77;100.00;99234.63;5094418;28;20227;-78
2023/12/19 07:55:17;;;;;;;17.03;10.37;;;;;;;-0.70;100.00;99234.59;5098960;28;20245;-78
2023/12/19 07:57:44;;;;;;;17.20;11.03;;;;;;;-0.64;100.00;99229.34;5099229;28;20246;-78
2023/12/19 08:00:12;;;;;;;19.90;11.07;;;;;;;-0.68;100.00;99229.38;5099376;28;20271;-78
2023/12/19 08:02:39;;;;;;;17.13;10.10;;;;;;;-0.56;100.00;99237.94;5099144;28;20219;-79
2023/12/19 08:05:05;;;;;;;15.93;10.03;;;;;;;-0.52;100.00;99228.38;5098419;28;20203;-78
2023/12/19 08:07:33;;;;;;;15.93;10.00;;;;;;;-0.62;100.00;99234.53;5099286;28;20194;-79
2023/12/19 08:10:04;;;;;;;19.00;10.50;;;;;;;-0.61;100.00;99233.66;5098765;28;20246;-78
2023/12/19 08:12:30;;;;;;;17.20;9.73;;;;;;;-0.70;100.00;99234.59;5098465;28;20226;-79
2023/12/19 08:14:57;;;;;;;14.77;10.40;;;;;;;-0.71;100.00;99242.38;5097686;28;20238;-80
2023/12/19 08:17:23;;;;;;;16.97;10.43;;;;;;;-0.70;100.00;99233.72;5098099;28;20219;-80
2023/12/19 08:19:50;;;;;;;18.43;10.33;;;;;;;-0.74;100.00;99232.03;5098180;28;20206;-80
2023/12/19 08:22:16;;;;;;;18.30;10.60;;;;;;;-0.64;100.00;99234.53;5098779;28;20213;-80
2023/12/19 08:24:44;;;;;;;18.27;10.43;;;;;;;-0.52;100.00;99228.38;5097950;28;20213;-80
2023/12/19 08:27:11;;;;;;;14.93;8.90;;;;;;;-0.62;100.00;99226.75;5098706;28;20206;-80
2023/12/19 08:29:37;;;;;;;15.57;10.77;;;;;;;-0.57;100.00;99225.81;5098856;28;20245;-80
2023/12/19 08:32:05;;;;;;;17.33;9.83;;;;;;;-0.62;100.00;99216.38;5098815;28;20278;-80
2023/12/19 08:34:31;;;;;;;16.63;9.53;;;;;;;-0.66;100.00;99209.47;5097977;28;20212;-80
2023/12/19 08:36:57;;;;;;;17.23;10.83;;;;;;;-0.48;100.00;99211.91;5097882;28;20214;-80
2023/12/19 08:39:24;;;;;;;16.70;10.30;;;;;;;-0.47;100.00;99211.03;5097624;28;20249;-80
2023/12/19 08:41:52;;;;;;;18.57;10.07;;;;;;;-0.58;100.00;99210.25;5097632;28;20265;-80
2023/12/19 08:44:18;;;;;;;14.00;9.60;;;;;;;-0.62;100.00;99203.38;5097871;28;20250;-81
2023/12/19 08:46:45;;;;;;;16.03;9.73;;;;;;;-0.67;100.00;99202.56;5097153;28;20193;-80
2023/12/19 08:49:12;;;;;;;16.73;9.50;;;;;;;-0.65;100.00;99203.41;5097552;28;20243;-80
2023/12/19 08:51:45;;;;;;;13.70;9.83;;;;;;;-0.64;100.00;99206.00;5097133;28;20277;-80
2023/12/19 08:54:12;;;;;;;18.27;10.67;;;;;;;-0.62;100.00;99205.97;5084700;28;20258;-81
2023/12/19 08:56:40;;;;;;;17.87;10.73;;;;;;;-0.61;100.00;99212.88;5083344;28;20217;-81
2023/12/19 08:59:08;;;;;;;17.33;10.50;;;;;;;-0.50;100.00;99200.69;5085090;28;20210;-81
2023/12/19 09:01:34;;;;;;;16.33;10.03;;;;;;;-0.40;100.00;99191.91;5083604;28;20233;-81
2023/12/19 09:04:01;;;;;;;15.77;11.03;;;;;;;-0.37;100.00;99191.91;5079633;28;20224;-80
2023/12/19 09:06:27;;;;;;;16.80;10.37;;;;;;;-0.40;100.00;99187.59;5081329;28;20215;-79
2023/12/19 09:08:54;;;;;;;16.43;10.73;;;;;;;-0.34;100.00;99181.47;5082096;28;20213;-80
2023/12/19 09:11:20;;;;;;;19.83;12.33;;;;;;;-0.26;100.00;99190.06;5081141;28;20231;-81
2023/12/19 09:13:47;;;;;;;16.60;11.33;;;;;;;-0.17;100.00;99174.38;5081528;28;20267;-80
2023/12/19 09:16:15;;;;;;;22.03;11.07;;;;;;;-0.08;100.00;99165.63;5070959;28;20222;-80
2023/12/19 09:18:41;;;;;;;18.57;11.67;;;;;;;-0.01;100.00;99169.88;5064480;28;20225;-80
2023/12/19 09:21:09;;;;;;;17.20;10.97;;;;;;;0.05;100.00;99176.72;5080979;28;20245;-80
2023/12/19 09:23:35;;;;;;;19.33;11.33;;;;;;;0.13;100.00;99178.38;5078349;28;20236;-80
2023/12/19 09:26:03;;;;;;;18.40;10.97;;;;;;;0.19;100.00;99167.06;5079723;28;20235;-80
2023/12/19 09:28:30;;;;;;;17.87;12.10;;;;;;;0.21;100.00;99158.38;5080317;28;20211;-80
2023/12/19 09:30:56;;;;;;;17.73;11.63;;;;;;;0.29;100.00;99148.72;5080254;28;20214;-81
2023/12/19 09:33:24;;;;;;;18.57;12.10;;;;;;;0.42;100.00;99149.41;5063160;28;20333;-80
2023/12/19 09:35:51;;;;;;;19.53;12.47;;;;;;;0.43;100.00;99144.19;5060662;28;20615;-82
2023/12/19 09:38:18;;;;;;;18.23;10.97;;;;;;;0.42;100.00;99139.88;5060541;28;20670;-81
2023/12/19 09:40:44;;;;;;;20.60;11.67;;;;;;;0.50;100.00;99151.03;5059913;28;20263;-80
2023/12/19 09:43:11;;;;;;;19.10;10.83;;;;;;;0.45;100.00;99144.19;5060031;28;20212;-81
2023/12/19 09:45:37;;;;;;;18.57;11.40;;;;;;;0.49;100.00;99157.13;5061724;28;20215;-81
2023/12/19 09:48:05;;;;;;;18.60;11.60;;;;;;;0.48;100.00;99165.81;5060729;28;20689;-81
2023/12/19 09:50:37;;;;;;;20.00;10.90;;;;;;;0.44;100.00;99151.09;5061111;28;20218;-81
2023/12/19 09:53:07;;;;;;;17.90;11.27;;;;;;;0.48;100.00;99160.59;5077293;28;20223;-81
2023/12/19 09:55:34;;;;;;;20.63;11.97;;;;;;;0.55;100.00;99170.03;5081277;28;20549;-80
2023/12/19 09:58:02;;;;;;;18.77;11.07;;;;;;;0.52;100.00;99172.69;5081467;28;20219;-81
2023/12/19 10:00:32;;;;;;;18.03;10.67;;;;;;;0.54;100.00;99167.44;5083349;28;20498;-80
2023/12/19 10:02:59;;;;;;;16.90;10.10;;;;;;;0.62;100.00;99155.22;5082838;28;20231;-81
2023/12/19 10:05:26;;;;;;;16.60;9.93;;;;;;;0.58;100.00;99149.19;5082045;28;20670;-81
2023/12/19 10:07:56;;;;;;;16.53;9.60;;;;;;;0.59;100.00;99135.31;5078799;28;20215;-80
2023/12/19 10:10:28;;;;;;;16.73;10.17;;;;;;;0.57;100.00;99131.00;5082302;28;20222;-80
2023/12/19 10:12:54;;;;;;;18.43;10.67;;;;;;;0.55;100.00;99128.41;5080349;28;20319;-79
2023/12/19 10:15:21;;;;;;;14.70;9.10;;;;;;;0.51;100.00;99131.94;5080016;28;20231;-81
2023/12/19 10:18:11;;;;;;;14.83;9.17;;;;;;;0.53;100.00;99125.00;5079897;28;20205;-81
2023/12/19 10:20:38;;;;;;;14.63;8.53;;;;;;;0.54;100.00;99133.63;5076224;28;20211;-79
2023/12/19 10:23:06;;;;;;;17.50;9.57;;;;;;;0.53;100.00;99135.41;5076348;28;20606;-81
2023/12/19 10:25:33;;;;;;;15.20;9.70;;;;;;;0.54;100.00;99142.31;5073913;28;20208;-79
2023/12/19 10:28:09;;;;;;;15.20;8.63;;;;;;;0.47;100.00;99137.22;5077676;28;20211;-80
2023/12/19 10:30:36;;;;;;;14.63;8.90;;;;;;;0.40;100.00;99132.97;5080865;28;20226;-81
2023/12/19 10:33:03;;;;;;;15.23;9.60;;;;;;;0.46;100.00;99125.97;5077886;28;20223;-80
2023/12/19 10:35:37;;;;;;;13.90;7.87;;;;;;;0.40;100.00;99123.44;5063744;28;20228;-80
2023/12/19 10:38:04;;;;;;;14.43;8.57;;;;;;;0.32;100.00;99114.88;5062358;28;20218;-80
2023/12/19 10:40:32;;;;;;;16.57;9.23;;;;;;;0.35;100.00;99109.63;5063063;28;20227;-80
2023/12/19 10:43:00;;;;;;;15.27;9.17;;;;;;;0.29;100.00;99103.66;5062173;28;20238;-80
2023/12/19 10:45:26;;;;;;;15.97;9.63;;;;;;;0.31;100.00;99101.91;5063772;28;20295;-80
2023/12/19 10:47:53;;;;;;;12.70;7.67;;;;;;;0.28;100.00;99095.00;5061944;28;20315;-80
2023/12/19 10:50:19;;;;;;;17.57;11.10;;;;;;;0.31;100.00;99087.16;5063582;28;20447;-80
2023/12/19 10:52:49;;;;;;;13.60;8.57;;;;;;;0.43;100.00;99086.97;5063893;28;20505;-80
2023/12/19 10:55:21;;;;;;;13.63;8.50;;;;;;;0.35;100.00;99078.44;5063680;28;20242;-80
2023/12/19 10:57:50;;;;;;;17.60;9.30;;;;;;;0.39;100.00;99080.09;5061945;28;20250;-81
2023/12/19 11:00:22;;;;;;;16.00;8.13;;;;;;;0.48;100.00;99072.19;5063134;28;20200;-80
2023/12/19 11:03:12;;;;;;;10.83;8.03;;;;;;;0.46;100.00;99071.34;5062460;28;20238;-80
2023/12/19 11:05:41;;;;;;;13.67;7.87;;;;;;;0.45;100.00;99073.97;5061617;28;20677;-81
2023/12/19 11:08:12;;;;;;;15.17;9.43;;;;;;;0.57;100.00;99074.63;5060220;28;20563;-82
2023/12/19 11:10:40;;;;;;;14.70;9.00;;;;;;;0.55;100.00;99066.00;5060812;28;20258;-80
2023/12/19 11:13:10;;;;;;;12.37;8.20;;;;;;;0.63;100.00;99064.13;5060363;28;20711;-81